Estación de San Pedro de Melipilla

Ultimos registro cada 15 minutos 53
Estación Fecha / Hora Temperatura Humedad Lluvia Velocidad Dirección Radiación Presion
53 San Pedro de Melipilla 03-09-2026 13:00 19 52,1 0 1,1 192 668,6 1006
52 San Pedro de Melipilla 03-09-2026 12:45 18,9 53,4 0 1,1 172 665,9 1006
51 San Pedro de Melipilla 03-09-2026 12:30 18,7 55,5 0 0,9 113 661,7 1006
50 San Pedro de Melipilla 03-09-2026 12:15 18,5 56,8 0 0,9 184 657,5 1006
49 San Pedro de Melipilla 03-09-2026 12:00 18 57,3 0 1,1 124 645,4 1006
48 San Pedro de Melipilla 03-09-2026 11:45 17,5 59,2 0 1 150 627,8 1006
47 San Pedro de Melipilla 03-09-2026 11:30 17,1 62,9 0 1 157 608,9 1006
46 San Pedro de Melipilla 03-09-2026 11:15 16,6 62,4 0 0,9 113 586,9 1006
45 San Pedro de Melipilla 03-09-2026 11:00 16,2 63,6 0 1,1 129 561,8 1007
44 San Pedro de Melipilla 03-09-2026 10:45 15,6 65,8 0 1,1 132 534,1 1007
43 San Pedro de Melipilla 03-09-2026 10:30 15,5 65,5 0 1,1 127 504,1 1007
42 San Pedro de Melipilla 03-09-2026 10:15 14,9 68,1 0 1,4 140 469,8 1006
41 San Pedro de Melipilla 03-09-2026 10:00 14,7 68,8 0 1,1 137 434,2 1007
40 San Pedro de Melipilla 03-09-2026 09:45 14 71,7 0 0,8 158 397,7 1006
39 San Pedro de Melipilla 03-09-2026 09:30 13,2 73,9 0 0,8 158 357,1 1006
38 San Pedro de Melipilla 03-09-2026 09:15 12,3 78,9 0 0,9 154 313,8 1006
37 San Pedro de Melipilla 03-09-2026 09:00 11,6 81,3 0 0,2 157 257,5 1006
36 San Pedro de Melipilla 03-09-2026 08:45 11 85,3 0 0 0 191,2 1006
35 San Pedro de Melipilla 03-09-2026 08:30 10,2 89,2 0 0 0 100,2 1006
34 San Pedro de Melipilla 03-09-2026 08:15 9,6 91,8 0 0 0 69,3 1006
33 San Pedro de Melipilla 03-09-2026 08:00 9,3 92,8 0 0 251 50,8 1006
32 San Pedro de Melipilla 03-09-2026 07:45 9,1 94,2 0 0 0 35,4 1006
31 San Pedro de Melipilla 03-09-2026 07:30 8,7 96 0 0 0 12,5 1005
30 San Pedro de Melipilla 03-09-2026 07:15 8,1 96,8 0 0 0 3,1 1005
29 San Pedro de Melipilla 03-09-2026 07:00 7,5 96,6 0 0 0 0,9 1005
28 San Pedro de Melipilla 03-09-2026 06:45 7,1 96,2 0 0 0 0,1 1005
27 San Pedro de Melipilla 03-09-2026 06:30 7,1 95,2 0 0 0 0 1005
26 San Pedro de Melipilla 03-09-2026 06:15 6,8 95,7 0 0 0 0 1005
25 San Pedro de Melipilla 03-09-2026 06:00 6,8 94,6 0 0 0 0 1005
24 San Pedro de Melipilla 03-09-2026 05:45 6,9 94,5 0 0 0 0 1005
23 San Pedro de Melipilla 03-09-2026 05:30 7,1 94,2 0 0 0 0 1005
22 San Pedro de Melipilla 03-09-2026 05:15 7,4 93,8 0 0 0 0 1005
21 San Pedro de Melipilla 03-09-2026 05:00 7,5 94,3 0 0 0 0 1005
20 San Pedro de Melipilla 03-09-2026 04:45 7,7 93,7 0 0 51 0 1005
19 San Pedro de Melipilla 03-09-2026 04:30 7,7 93,4 0 0 0 0 1005
18 San Pedro de Melipilla 03-09-2026 04:15 8,3 92,2 0 0 0 0 1005
17 San Pedro de Melipilla 03-09-2026 04:00 8,7 91,9 0 0 0 0 1005
16 San Pedro de Melipilla 03-09-2026 03:45 9,2 92 0 0 0 0 1005
15 San Pedro de Melipilla 03-09-2026 03:30 9,2 93,2 0 0 0 0 1005
14 San Pedro de Melipilla 03-09-2026 03:15 9 92,7 0 0 0 0 1005
13 San Pedro de Melipilla 03-09-2026 03:00 9,4 90,6 0 0 0 0 1005
12 San Pedro de Melipilla 03-09-2026 02:45 10,2 89 0 0 0 0 1005
11 San Pedro de Melipilla 03-09-2026 02:30 10,7 88,2 0 0 0 0 1005
10 San Pedro de Melipilla 03-09-2026 02:15 11 88,5 0 0 0 0 1005
9 San Pedro de Melipilla 03-09-2026 02:00 11,2 88,1 0 0 0 0 1005
8 San Pedro de Melipilla 03-09-2026 01:45 11,4 87,4 0 0 0 0 1005
7 San Pedro de Melipilla 03-09-2026 01:30 11,4 87,1 0 0 256 0 1005
6 San Pedro de Melipilla 03-09-2026 01:15 11,4 87,4 0 0 229 0 1005
5 San Pedro de Melipilla 03-09-2026 01:00 11,5 87,1 0 0 0 0 1005
4 San Pedro de Melipilla 03-09-2026 00:45 11,8 86,3 0 0 242 0 1005
3 San Pedro de Melipilla 03-09-2026 00:30 12,1 85,6 0 0 240 0 1005
2 San Pedro de Melipilla 03-09-2026 00:15 12,2 86 0 0,2 235 0 1005
1 San Pedro de Melipilla 03-09-2026 00:00 12,5 85 0 0,2 218 0 1005